Time;durP1;ratioP1;P1;durP2;ratioP2;P2;SDS_P1;SDS_P2;PMS_P1;PMS_P2;Temp;Humidity;BMP_temperature;BMP_pressure;BME280_temperature;BME280_humidity;BME280_pressure;Samples;Min_cycle;Max_cycle;Signal;HPM_P1;HPM_P2
2021/12/04 00:01:51;;;;;;;5.50;3.40;;;4.40;1.00;;;;;;4952285;28;20206;-59
2021/12/04 00:04:32;;;;;;;4.50;3.10;;;4.40;1.00;;;;;;4931425;28;20234;-59
2021/12/04 00:06:59;;;;;;;10.83;6.40;;;4.40;4.50;;;;;;4952144;28;20194;-58
2021/12/04 00:09:26;;;;;;;8.70;5.17;;;4.40;36.30;;;;;;4951801;28;20218;-59
2021/12/04 00:12:01;;;;;;;8.53;4.97;;;4.30;84.60;;;;;;4951910;28;21086;-58
2021/12/04 00:14:29;;;;;;;7.13;4.77;;;4.30;85.40;;;;;;4934049;28;20206;-59
2021/12/04 00:16:57;;;;;;;7.90;4.90;;;4.30;81.30;;;;;;4950314;28;21002;-58
2021/12/04 00:19:27;;;;;;;4.30;3.07;;;4.40;71.10;;;;;;4951864;28;20207;-59
2021/12/04 00:21:55;;;;;;;4.30;3.33;;;4.40;26.20;;;;;;4930947;28;20227;-58
2021/12/04 00:24:23;;;;;;;4.67;3.40;;;4.40;69.90;;;;;;4952063;28;20202;-59
2021/12/04 00:26:51;;;;;;;9.13;5.30;;;4.30;99.90;;;;;;4948414;28;20208;-59
2021/12/04 00:29:19;;;;;;;8.17;4.93;;;4.30;99.90;;;;;;4928443;28;20302;-58
2021/12/04 00:31:49;;;;;;;6.83;4.23;;;4.40;92.30;;;;;;4928692;28;20673;-58
2021/12/04 00:34:18;;;;;;;11.93;7.20;;;4.40;78.80;;;;;;4930393;28;20971;-58
2021/12/04 00:50:34;;;;;;;13.50;8.53;;;4.40;76.40;;;;;;4858162;29;20717;-58
2021/12/04 00:53:01;;;;;;;8.20;4.90;;;4.40;40.70;;;;;;4932570;28;20242;-58
2021/12/04 00:55:28;;;;;;;3.53;2.80;;;4.40;62.80;;;;;;4933322;28;20200;-58
2021/12/04 00:57:55;;;;;;;6.40;4.03;;;4.40;74.30;;;;;;4928529;28;20678;-58
2021/12/04 01:00:22;;;;;;;4.37;3.57;;;4.40;30.30;;;;;;4949265;28;20305;-59
2021/12/04 01:02:49;;;;;;;6.43;4.40;;;4.40;27.60;;;;;;4949689;28;20206;-59
2021/12/04 01:05:16;;;;;;;8.30;5.17;;;4.40;49.70;;;;;;4932184;28;20734;-59
2021/12/04 01:07:43;;;;;;;4.20;3.33;;;4.40;30.80;;;;;;4944561;28;20202;-59
2021/12/04 01:10:10;;;;;;;4.33;3.37;;;4.40;61.40;;;;;;4939152;29;20199;-58
2021/12/04 01:12:37;;;;;;;4.83;3.70;;;4.40;90.90;;;;;;4940795;29;20295;-56
2021/12/04 01:15:06;;;;;;;5.13;3.90;;;4.40;79.30;;;;;;4923379;29;20269;-58
2021/12/04 01:17:33;;;;;;;4.90;3.23;;;4.40;99.90;;;;;;4924518;29;20246;-58
2021/12/04 01:20:00;;;;;;;3.37;2.73;;;4.40;99.90;;;;;;4924002;29;20203;-58
2021/12/04 01:22:27;;;;;;;2.83;2.47;;;4.40;99.90;;;;;;4922897;29;20278;-58
2021/12/04 01:24:54;;;;;;;3.30;2.93;;;4.40;99.90;;;;;;4940905;29;20210;-58
2021/12/04 01:27:23;;;;;;;4.27;3.37;;;4.40;99.90;;;;;;4939645;28;20243;-57
2021/12/04 01:29:50;;;;;;;2.90;2.70;;;4.40;99.90;;;;;;4923393;29;20659;-58
2021/12/04 01:32:17;;;;;;;3.50;3.00;;;4.40;99.90;;;;;;4941550;29;20197;-57
2021/12/04 01:34:44;;;;;;;3.37;2.80;;;4.30;99.90;;;;;;4941376;29;20223;-58
2021/12/04 01:37:11;;;;;;;3.53;3.13;;;4.30;1.00;;;;;;4929003;29;20235;-57
2021/12/04 01:39:38;;;;;;;3.73;3.33;;;4.20;1.00;;;;;;4941277;29;20254;-58
2021/12/04 01:42:05;;;;;;;4.10;3.57;;;4.20;1.00;;;;;;4940699;28;20215;-58
2021/12/04 01:44:32;;;;;;;3.73;3.30;;;4.20;1.00;;;;;;4940789;29;20254;-58
2021/12/04 01:47:09;;;;;;;4.80;3.20;;;4.20;1.00;;;;;;4941185;29;20267;-58
2021/12/04 01:49:36;;;;;;;4.90;3.70;;;4.10;1.00;;;;;;4924252;29;20199;-58
2021/12/04 01:52:03;;;;;;;5.10;3.77;;;4.10;1.00;;;;;;4923402;29;20235;-58
2021/12/04 01:54:30;;;;;;;4.43;3.97;;;4.10;1.00;;;;;;4939843;29;20278;-58
2021/12/04 01:56:57;;;;;;;5.67;3.70;;;4.10;1.00;;;;;;4939271;29;20286;-58
2021/12/04 01:59:24;;;;;;;4.37;3.97;;;4.10;1.00;;;;;;4940916;28;20249;-58
2021/12/04 02:01:51;;;;;;;4.13;3.60;;;4.10;1.00;;;;;;4941463;29;20215;-58
2021/12/04 02:04:19;;;;;;;3.73;3.43;;;4.00;68.80;;;;;;4939383;29;20695;-58
2021/12/04 02:06:46;;;;;;;4.10;3.67;;;4.00;86.20;;;;;;4939403;29;20250;-58
2021/12/04 02:09:13;;;;;;;7.93;3.93;;;4.00;99.90;;;;;;4940915;29;20821;-58
2021/12/04 02:11:40;;;;;;;4.53;4.00;;;4.00;99.90;;;;;;4939581;29;20218;-58
2021/12/04 02:14:07;;;;;;;5.67;4.23;;;3.90;99.90;;;;;;4941028;29;20223;-58
2021/12/04 02:16:34;;;;;;;4.80;4.10;;;4.00;99.90;;;;;;4930638;29;20194;-58
2021/12/04 02:19:01;;;;;;;4.73;4.10;;;4.00;99.90;;;;;;4940816;29;20289;-58
2021/12/04 02:21:30;;;;;;;5.13;4.53;;;4.00;34.50;;;;;;4940307;29;20216;-58
2021/12/04 02:23:57;;;;;;;6.00;4.83;;;4.00;57.20;;;;;;4939738;29;20290;-58
2021/12/04 02:26:24;;;;;;;5.37;4.37;;;4.00;51.60;;;;;;4938556;29;20679;-58
2021/12/04 02:28:51;;;;;;;4.83;4.33;;;4.00;30.00;;;;;;4920229;29;20207;-58
2021/12/04 02:31:18;;;;;;;5.73;4.20;;;4.10;45.00;;;;;;4939858;29;20261;-62
2021/12/04 02:33:46;;;;;;;4.53;4.13;;;4.00;1.00;;;;;;4941966;28;20205;-58
2021/12/04 02:36:13;;;;;;;6.90;4.20;;;4.00;1.00;;;;;;4926537;29;20226;-59
2021/12/04 02:38:40;;;;;;;5.83;4.33;;;4.00;2.90;;;;;;4941159;29;20638;-58
2021/12/04 02:41:09;;;;;;;4.60;4.20;;;4.10;1.00;;;;;;4915835;29;20301;-58
2021/12/04 02:43:36;;;;;;;4.03;3.63;;;4.10;1.00;;;;;;4943486;29;20250;-58
2021/12/04 02:46:03;;;;;;;4.83;4.00;;;4.10;1.00;;;;;;4925089;29;20204;-58
2021/12/04 02:48:30;;;;;;;4.33;3.93;;;4.00;1.00;;;;;;4942094;29;20275;-58
2021/12/04 02:50:57;;;;;;;4.90;4.40;;;4.10;1.00;;;;;;4943031;29;20250;-58
2021/12/04 02:53:25;;;;;;;4.70;4.23;;;4.10;1.00;;;;;;4943551;29;20179;-59
2021/12/04 02:55:53;;;;;;;5.00;4.50;;;4.10;1.00;;;;;;4926287;29;20294;-59
2021/12/04 02:58:20;;;;;;;5.73;4.37;;;4.10;1.00;;;;;;4933208;29;20266;-59
2021/12/04 03:00:50;;;;;;;5.50;4.33;;;4.10;1.00;;;;;;4943491;29;20237;-59
2021/12/04 03:03:19;;;;;;;6.13;4.37;;;4.10;1.00;;;;;;4943342;29;20218;-59
2021/12/04 03:05:51;;;;;;;4.67;4.17;;;4.10;1.00;;;;;;4925795;29;20282;-58
2021/12/04 03:08:22;;;;;;;6.13;4.97;;;4.10;1.00;;;;;;4942502;29;20233;-58
2021/12/04 03:10:51;;;;;;;4.97;4.53;;;4.10;17.10;;;;;;4942304;29;20190;-58
2021/12/04 03:13:20;;;;;;;5.27;4.77;;;4.10;34.30;;;;;;4938697;29;20195;-58
2021/12/04 03:15:56;;;;;;;7.13;5.10;;;4.10;99.90;;;;;;4941482;29;20219;-58
2021/12/04 03:18:23;;;;;;;5.43;4.93;;;4.00;99.90;;;;;;4925602;29;20257;-58
2021/12/04 03:20:54;;;;;;;5.40;4.90;;;3.90;99.90;;;;;;4940407;29;20534;-58
2021/12/04 03:23:32;;;;;;;5.40;4.90;;;3.90;99.90;;;;;;4926200;29;20195;-59
2021/12/04 03:26:01;;;;;;;6.17;5.30;;;3.90;99.90;;;;;;4942711;29;20195;-58
2021/12/04 03:28:28;;;;;;;5.73;5.13;;;3.90;1.00;;;;;;4942151;28;20249;-59
2021/12/04 03:41:49;;;;;;;5.20;4.70;;;4.00;99.90;;;;;;4941564;29;20216;-59
2021/12/04 03:44:16;;;;;;;6.93;4.67;;;4.00;99.90;;;;;;4924454;29;20202;-59
2021/12/04 03:46:45;;;;;;;5.07;4.33;;;4.00;99.90;;;;;;4909871;29;20212;-58
2021/12/04 03:49:12;;;;;;;5.30;4.80;;;4.00;99.90;;;;;;4943429;29;20251;-59
2021/12/04 03:51:39;;;;;;;5.17;4.30;;;4.00;99.90;;;;;;4940677;28;21167;-59
2021/12/04 03:54:06;;;;;;;4.70;4.27;;;4.00;99.90;;;;;;4926755;29;20211;-58
2021/12/04 03:56:35;;;;;;;4.40;4.00;;;4.00;99.90;;;;;;4940520;29;20229;-59
2021/12/04 03:59:03;;;;;;;4.83;4.43;;;4.00;99.90;;;;;;4926060;29;20203;-59
2021/12/04 04:01:30;;;;;;;4.33;3.90;;;4.00;99.90;;;;;;4925628;29;20226;-59
2021/12/04 04:03:58;;;;;;;5.73;4.50;;;4.00;99.90;;;;;;4942578;29;20255;-58
2021/12/04 04:06:25;;;;;;;4.63;4.00;;;4.00;99.90;;;;;;4914859;29;20204;-60
2021/12/04 04:08:52;;;;;;;5.40;4.37;;;4.10;76.60;;;;;;4943288;29;20205;-58
2021/12/04 04:11:19;;;;;;;5.37;4.20;;;4.00;1.00;;;;;;4925000;29;20211;-59
2021/12/04 04:13:46;;;;;;;5.30;4.40;;;4.10;1.00;;;;;;4942092;29;20618;-59
2021/12/04 04:16:14;;;;;;;4.47;4.07;;;4.10;1.00;;;;;;4942255;29;20575;-59
2021/12/04 04:18:41;;;;;;;4.23;3.83;;;4.10;1.00;;;;;;4925493;29;20199;-58
2021/12/04 04:21:09;;;;;;;4.50;4.10;;;4.20;1.00;;;;;;4931167;29;20651;-58
2021/12/04 04:23:36;;;;;;;4.97;3.97;;;4.10;18.30;;;;;;4925686;29;20195;-58
2021/12/04 04:26:03;;;;;;;4.80;4.40;;;4.20;1.00;;;;;;4942812;29;20191;-58
2021/12/04 04:28:30;;;;;;;6.27;4.87;;;4.20;1.00;;;;;;4944307;28;20206;-58
2021/12/04 04:30:57;;;;;;;5.20;4.63;;;4.20;1.00;;;;;;4944025;29;20195;-57
2021/12/04 04:33:24;;;;;;;5.70;5.10;;;4.20;1.00;;;;;;4927856;29;20270;-58
2021/12/04 04:36:07;;;;;;;10.37;5.13;;;4.20;1.00;;;;;;4928935;29;20259;-58
2021/12/04 04:38:45;;;;;;;6.17;5.50;;;4.10;1.40;;;;;;4943510;29;20195;-58
2021/12/04 04:58:05;;;;;;;6.23;5.63;;;4.10;26.90;;;;;;4932144;29;21013;-58
2021/12/04 05:11:17;;;;;;;5.90;5.40;;;4.00;99.90;;;;;;4929063;29;20242;-58
2021/12/04 05:13:45;;;;;;;6.40;5.80;;;3.90;99.90;;;;;;4925062;29;20199;-58
2021/12/04 05:16:13;;;;;;;5.97;5.37;;;4.00;99.90;;;;;;4931000;29;20205;-58
2021/12/04 05:18:59;;;;;;;6.30;5.50;;;3.90;99.90;;;;;;4924207;29;20207;-59
2021/12/04 05:21:31;;;;;;;6.23;5.40;;;3.90;99.90;;;;;;4924502;29;20302;-58
2021/12/04 05:23:58;;;;;;;5.87;5.20;;;3.90;99.90;;;;;;4924800;29;20663;-58
2021/12/04 05:26:28;;;;;;;5.77;4.77;;;3.90;99.90;;;;;;4940335;29;20235;-58
2021/12/04 05:29:00;;;;;;;5.33;4.83;;;3.90;99.90;;;;;;4924502;29;20239;-58
2021/12/04 05:31:28;;;;;;;5.90;5.30;;;4.00;99.90;;;;;;4941682;29;20245;-57
2021/12/04 05:33:55;;;;;;;5.30;4.17;;;4.00;99.90;;;;;;4942043;29;20192;-58
2021/12/04 05:36:24;;;;;;;4.23;3.83;;;4.00;99.90;;;;;;4923587;29;20567;-58
2021/12/04 05:38:52;;;;;;;5.27;4.07;;;4.00;99.90;;;;;;4924443;29;20745;-58
2021/12/04 05:41:19;;;;;;;4.70;4.20;;;4.00;99.90;;;;;;4924061;29;20235;-58
2021/12/04 05:43:49;;;;;;;4.97;4.17;;;4.00;69.80;;;;;;4924614;29;20220;-59
2021/12/04 05:46:23;;;;;;;5.07;4.10;;;4.10;56.30;;;;;;4939866;29;20203;-59
2021/12/04 05:48:55;;;;;;;4.33;3.93;;;4.10;6.80;;;;;;4923784;29;20206;-59
2021/12/04 05:53:59;;;;;;;4.27;3.87;;;4.10;1.00;;;;;;4940767;29;20203;-59
2021/12/04 05:56:29;;;;;;;4.57;3.90;;;4.10;1.00;;;;;;4938847;29;20677;-58
2021/12/04 05:58:57;;;;;;;5.10;4.13;;;4.20;1.00;;;;;;4938579;29;20225;-59
2021/12/04 06:01:30;;;;;;;5.20;4.43;;;4.20;1.00;;;;;;4924404;29;20254;-59
2021/12/04 06:03:57;;;;;;;4.73;4.00;;;4.20;1.00;;;;;;4939348;29;20238;-58
2021/12/04 06:06:24;;;;;;;8.20;6.10;;;4.20;1.00;;;;;;4931000;29;20849;-57
2021/12/04 06:08:51;;;;;;;7.63;4.97;;;4.20;1.00;;;;;;4927646;29;20210;-58
2021/12/04 06:11:18;;;;;;;8.87;6.57;;;4.20;1.00;;;;;;4929255;29;20203;-58
2021/12/04 06:13:45;;;;;;;7.00;5.57;;;4.10;1.00;;;;;;4947455;29;20603;-58
2021/12/04 06:16:14;;;;;;;5.13;4.03;;;4.20;1.00;;;;;;4920493;29;20248;-58
2021/12/04 06:18:45;;;;;;;8.83;6.20;;;4.20;1.00;;;;;;4945102;29;20687;-59
2021/12/04 06:23:58;;;;;;;11.03;6.47;;;4.20;1.00;;;;;;4947353;28;20298;-58
2021/12/04 06:26:25;;;;;;;5.30;4.80;;;4.20;1.00;;;;;;4945868;29;20254;-58
2021/12/04 06:28:52;;;;;;;5.60;5.00;;;4.20;1.00;;;;;;4944296;28;20230;-59
2021/12/04 06:31:19;;;;;;;5.83;5.20;;;4.20;1.00;;;;;;4927714;29;20267;-59
2021/12/04 06:33:46;;;;;;;5.67;4.83;;;4.20;1.00;;;;;;4935738;29;20202;-58
2021/12/04 06:36:14;;;;;;;5.70;5.17;;;4.10;32.80;;;;;;4945836;29;20207;-58
2021/12/04 06:38:41;;;;;;;6.57;5.53;;;4.10;99.90;;;;;;4936220;29;20745;-58
2021/12/04 06:41:08;;;;;;;6.00;5.40;;;4.10;39.20;;;;;;4945660;28;20213;-59
2021/12/04 06:43:38;;;;;;;6.93;5.70;;;4.20;99.90;;;;;;4947060;29;20214;-57
2021/12/04 06:46:09;;;;;;;5.93;5.20;;;4.10;37.10;;;;;;4947199;29;20198;-59
2021/12/04 06:48:39;;;;;;;5.60;5.10;;;4.20;96.70;;;;;;4946205;29;20202;-58
2021/12/04 06:53:47;;;;;;;8.37;5.87;;;4.10;1.00;;;;;;4947057;29;20972;-59
2021/12/04 06:56:15;;;;;;;6.87;5.60;;;4.10;26.70;;;;;;4945188;28;20880;-59
2021/12/04 06:58:43;;;;;;;6.83;6.13;;;4.10;6.10;;;;;;4929060;29;20717;-59
2021/12/04 07:01:11;;;;;;;6.53;5.90;;;4.10;54.50;;;;;;4947320;29;20659;-58
2021/12/04 07:03:38;;;;;;;6.80;6.10;;;4.10;96.60;;;;;;4946066;29;20249;-58
2021/12/04 07:06:07;;;;;;;6.60;5.90;;;4.10;62.80;;;;;;4944444;29;20207;-58
2021/12/04 07:08:34;;;;;;;8.27;6.27;;;4.10;99.90;;;;;;4946449;28;20239;-58
2021/12/04 07:11:05;;;;;;;7.73;6.60;;;4.10;99.90;;;;;;4947159;29;20195;-59
2021/12/04 07:13:33;;;;;;;8.43;6.97;;;4.10;99.90;;;;;;4945762;28;20236;-59
2021/12/04 07:16:05;;;;;;;7.60;6.87;;;4.10;99.90;;;;;;4913530;29;20383;-59
2021/12/04 07:18:34;;;;;;;8.00;6.67;;;4.10;99.90;;;;;;4945760;28;20190;-59
2021/12/04 07:21:02;;;;;;;7.30;6.10;;;4.10;99.90;;;;;;4943046;29;20209;-59
2021/12/04 07:23:29;;;;;;;8.77;6.47;;;4.10;97.20;;;;;;4941166;29;20275;-59
2021/12/04 07:25:56;;;;;;;6.80;6.10;;;4.10;66.10;;;;;;4926733;29;20199;-58
2021/12/04 07:28:27;;;;;;;7.40;6.20;;;4.20;1.00;;;;;;4943152;28;20253;-58
2021/12/04 07:30:55;;;;;;;6.80;6.10;;;4.20;91.00;;;;;;4932396;29;20206;-59
2021/12/04 07:33:22;;;;;;;6.63;5.93;;;4.20;75.50;;;;;;4942684;29;20199;-58
2021/12/04 07:35:50;;;;;;;8.80;7.17;;;4.20;99.90;;;;;;4925557;29;20204;-58
2021/12/04 07:38:18;;;;;;;6.70;6.10;;;4.30;72.40;;;;;;4942681;29;20267;-58
2021/12/04 07:40:48;;;;;;;18.27;13.37;;;4.20;1.00;;;;;;4933830;29;20789;-58
2021/12/04 07:43:15;;;;;;;7.27;6.20;;;4.30;1.00;;;;;;4942138;29;20243;-58
2021/12/04 07:45:42;;;;;;;7.70;6.90;;;4.30;20.10;;;;;;4941005;29;20242;-58
2021/12/04 07:48:09;;;;;;;7.10;6.27;;;4.30;29.20;;;;;;4942611;29;20199;-58
2021/12/04 07:50:40;;;;;;;11.83;8.63;;;4.30;1.00;;;;;;4931371;29;20853;-58
2021/12/04 07:53:07;;;;;;;122.63;72.47;;;4.30;1.00;;;;;;4942737;29;20203;-58
2021/12/04 07:55:34;;;;;;;7.10;5.90;;;4.30;1.00;;;;;;4940599;29;20802;-59
2021/12/04 07:58:02;;;;;;;10.93;9.07;;;4.30;1.00;;;;;;4943240;29;20265;-59
2021/12/04 08:00:30;;;;;;;6.57;5.87;;;4.40;1.00;;;;;;4939912;29;21140;-59
2021/12/04 08:02:57;;;;;;;6.60;6.00;;;4.40;1.00;;;;;;4943039;29;20222;-59
2021/12/04 08:05:27;;;;;;;7.27;6.20;;;4.40;1.00;;;;;;4917286;29;20256;-59
2021/12/04 08:07:55;;;;;;;6.27;5.67;;;4.40;1.00;;;;;;4926394;29;20199;-58
2021/12/04 08:10:23;;;;;;;6.17;5.57;;;4.40;1.00;;;;;;4926560;29;20610;-59
2021/12/04 08:12:50;;;;;;;7.37;5.97;;;4.40;1.00;;;;;;4943197;29;20784;-59
2021/12/04 08:15:17;;;;;;;7.03;5.80;;;4.40;1.00;;;;;;4941729;29;20207;-59
2021/12/04 08:17:45;;;;;;;6.67;5.97;;;4.40;1.00;;;;;;4925788;29;20202;-59
2021/12/04 08:20:14;;;;;;;7.03;5.80;;;4.50;1.00;;;;;;4940579;29;20771;-59
2021/12/04 08:22:42;;;;;;;8.43;7.40;;;4.40;1.00;;;;;;4924556;29;20218;-58
2021/12/04 08:25:12;;;;;;;7.73;5.63;;;4.50;1.00;;;;;;4942380;29;21188;-58
2021/12/04 08:27:40;;;;;;;7.13;6.43;;;4.50;1.00;;;;;;4930887;28;20207;-58
2021/12/04 08:30:12;;;;;;;6.57;5.63;;;4.50;1.00;;;;;;4933813;28;20230;-59
2021/12/04 08:32:40;;;;;;;6.80;4.80;;;4.50;1.00;;;;;;4938924;29;20686;-59
2021/12/04 08:35:11;;;;;;;6.10;5.50;;;4.50;1.00;;;;;;4940310;29;20262;-59
2021/12/04 08:37:38;;;;;;;5.10;4.47;;;4.60;1.00;;;;;;4941646;29;20207;-58
2021/12/04 08:40:14;;;;;;;5.97;5.40;;;4.60;1.00;;;;;;4923334;29;20203;-59
2021/12/04 08:42:44;;;;;;;6.03;5.30;;;4.60;1.00;;;;;;4941987;29;20230;-58
2021/12/04 08:45:17;;;;;;;7.80;6.37;;;4.70;1.00;;;;;;4924070;29;20194;-58
2021/12/04 08:47:45;;;;;;;5.97;5.37;;;4.70;1.00;;;;;;4942460;29;20206;-58
2021/12/04 08:50:23;;;;;;;6.93;5.90;;;4.70;1.00;;;;;;4923341;29;20199;-58
2021/12/04 08:52:51;;;;;;;6.43;5.77;;;4.70;1.00;;;;;;4941154;29;20647;-58
2021/12/04 08:55:18;;;;;;;5.50;5.00;;;4.70;1.00;;;;;;4923110;29;20231;-59
2021/12/04 08:57:46;;;;;;;6.40;5.63;;;4.70;1.00;;;;;;4924290;29;20203;-58
2021/12/04 09:00:19;;;;;;;6.97;6.27;;;4.70;1.00;;;;;;4941438;29;20817;-58
2021/12/04 09:02:47;;;;;;;6.53;5.83;;;4.70;1.00;;;;;;4921646;28;20238;-58
2021/12/04 09:05:17;;;;;;;6.37;5.77;;;4.70;1.00;;;;;;4916803;29;20235;-58
2021/12/04 09:07:44;;;;;;;6.27;5.67;;;4.80;1.00;;;;;;4923847;29;20253;-58
2021/12/04 09:10:13;;;;;;;6.10;5.50;;;4.80;1.00;;;;;;4923768;29;20211;-59
2021/12/04 09:12:41;;;;;;;6.00;5.40;;;4.70;1.00;;;;;;4923476;29;20207;-58
2021/12/04 09:15:11;;;;;;;5.53;5.03;;;4.80;1.00;;;;;;4924780;29;20671;-58
2021/12/04 09:17:38;;;;;;;5.60;4.87;;;4.90;1.00;;;;;;4941849;29;20226;-58
2021/12/04 09:20:08;;;;;;;6.00;5.40;;;5.00;1.00;;;;;;4924963;29;20215;-60
2021/12/04 09:22:36;;;;;;;4.80;4.30;;;5.10;1.00;;;;;;4942942;29;20203;-60
2021/12/04 09:25:13;;;;;;;5.80;4.80;;;5.20;1.00;;;;;;4941266;29;20199;-59
2021/12/04 10:21:04;;;;;;;9.73;8.83;;;5.70;99.90;;;;;;4941285;29;20199;-59
2021/12/04 10:34:43;;;;;;;5.10;4.00;;;5.70;99.90;;;;;;4941141;29;20202;-58
2021/12/04 10:37:19;;;;;;;3.87;3.57;;;5.70;99.90;;;;;;4941963;29;20231;-58
2021/12/04 10:39:49;;;;;;;5.47;4.87;;;5.70;99.90;;;;;;4924237;29;20211;-59
2021/12/04 10:42:39;;;;;;;8.63;5.57;;;5.90;99.90;;;;;;4924795;29;20254;-59
2021/12/04 10:45:05;;;;;;;5.30;4.80;;;6.10;99.90;;;;;;4940574;29;20247;-59
2021/12/04 10:47:32;;;;;;;5.60;5.17;;;6.30;62.10;;;;;;4941114;29;20200;-59
2021/12/04 10:50:17;;;;;;;7.07;6.47;;;6.00;1.00;;;;;;4940850;29;20200;-58
2021/12/04 10:55:24;;;;;;;5.23;4.73;;;6.00;99.90;;;;;;4944607;29;20208;-59
2021/12/04 11:40:35;;;;;;;7.80;6.30;;;5.90;99.90;;;;;;4944810;29;20199;-58
2021/12/04 11:43:10;;;;;;;4.13;3.67;;;6.00;99.90;;;;;;4945375;29;20603;-58
2021/12/04 11:45:50;;;;;;;4.57;4.10;;;5.90;99.90;;;;;;4941418;29;20183;-59
2021/12/04 11:48:28;;;;;;;3.80;3.30;;;6.10;99.90;;;;;;4941825;29;20187;-59
2021/12/04 11:50:56;;;;;;;3.93;3.53;;;6.00;99.90;;;;;;4943622;29;20314;-59
2021/12/04 11:53:23;;;;;;;3.50;3.20;;;6.30;99.90;;;;;;4941795;29;20230;-59
2021/12/04 11:55:51;;;;;;;5.50;3.40;;;6.40;33.00;;;;;;4943704;29;20199;-58
2021/12/04 11:58:23;;;;;;;4.90;3.40;;;6.50;63.50;;;;;;4944051;29;20266;-58
2021/12/04 12:00:55;;;;;;;3.47;3.17;;;6.70;1.00;;;;;;4942050;29;20210;-59
2021/12/04 12:03:28;;;;;;;4.40;3.53;;;6.70;1.00;;;;;;4941311;29;20223;-58
2021/12/04 12:05:59;;;;;;;3.37;3.07;;;6.70;1.00;;;;;;4916030;29;20206;-59
2021/12/04 12:08:33;;;;;;;10.00;5.13;;;6.90;1.00;;;;;;4927548;29;20537;-58
2021/12/04 12:11:10;;;;;;;15.17;7.17;;;7.00;1.00;;;;;;4943634;29;20201;-58
2021/12/04 12:13:37;;;;;;;3.70;3.33;;;6.90;1.00;;;;;;4939586;29;20206;-59
2021/12/04 12:16:14;;;;;;;4.30;3.53;;;6.80;1.00;;;;;;4939823;28;20218;-58
2021/12/04 12:18:54;;;;;;;13.97;5.83;;;6.70;1.00;;;;;;4944714;29;20728;-59
2021/12/04 12:21:34;;;;;;;6.73;5.27;;;6.70;1.00;;;;;;4942445;29;20286;-59
2021/12/04 12:38:32;;;;;;;3.20;2.90;;;6.20;90.70;;;;;;4860200;29;20220;-58
2021/12/04 12:41:27;;;;;;;3.57;3.10;;;6.20;11.10;;;;;;4890363;29;20219;-58
2021/12/04 12:44:08;;;;;;;6.27;5.10;;;6.40;30.60;;;;;;4940912;29;20210;-58
2021/12/04 12:46:37;;;;;;;7.50;4.47;;;6.50;6.20;;;;;;4914759;29;20605;-58
2021/12/04 12:49:28;;;;;;;6.70;4.63;;;6.50;1.00;;;;;;4944502;29;20199;-60
2021/12/04 12:52:07;;;;;;;5.67;4.00;;;6.50;1.00;;;;;;4942407;29;20234;-59
2021/12/04 12:54:39;;;;;;;4.67;3.60;;;6.40;1.00;;;;;;4940085;29;20219;-58
2021/12/04 12:57:18;;;;;;;5.83;5.00;;;6.30;1.00;;;;;;4944695;29;20204;-58
2021/12/04 13:13:43;;;;;;;3.40;3.10;;;6.20;59.00;;;;;;4928055;29;20207;-59
2021/12/04 13:16:20;;;;;;;3.50;3.20;;;6.20;99.90;;;;;;4932533;29;20191;-59
2021/12/04 13:18:54;;;;;;;3.90;3.50;;;6.30;65.60;;;;;;4926529;29;20191;-58
2021/12/04 13:21:21;;;;;;;4.63;3.30;;;6.30;31.70;;;;;;4942425;29;20270;-58
2021/12/04 13:23:54;;;;;;;3.53;3.07;;;6.30;99.90;;;;;;4942384;29;20212;-59
2021/12/04 13:26:30;;;;;;;3.50;3.20;;;6.30;19.80;;;;;;4936765;28;20226;-58
2021/12/04 13:29:00;;;;;;;3.63;3.23;;;6.30;1.00;;;;;;4913929;29;20200;-58
2021/12/04 13:31:28;;;;;;;3.27;2.97;;;6.30;54.40;;;;;;4937839;29;20558;-59
2021/12/04 13:33:56;;;;;;;3.67;3.20;;;6.20;13.00;;;;;;4925620;29;20537;-59
2021/12/04 13:36:27;;;;;;;4.80;3.93;;;6.20;20.00;;;;;;4924322;29;20211;-59
2021/12/04 13:39:10;;;;;;;5.20;4.37;;;6.20;5.70;;;;;;4914233;29;20203;-59
2021/12/04 13:41:40;;;;;;;3.67;3.20;;;6.20;52.40;;;;;;4940537;29;20259;-59
2021/12/04 13:44:10;;;;;;;4.13;2.90;;;6.20;99.90;;;;;;4937970;29;20242;-59
2021/12/04 13:46:39;;;;;;;3.50;3.20;;;6.20;91.50;;;;;;4941725;29;20592;-59
2021/12/04 13:49:07;;;;;;;5.23;3.83;;;6.20;99.90;;;;;;4939342;29;20200;-59
2021/12/04 13:51:34;;;;;;;4.43;4.03;;;6.10;99.90;;;;;;4942789;29;20196;-58
2021/12/04 13:54:02;;;;;;;8.50;4.73;;;6.20;40.10;;;;;;4941736;29;20234;-58
2021/12/04 13:56:30;;;;;;;5.33;4.23;;;6.20;19.70;;;;;;4923133;29;20203;-58
2021/12/04 13:59:01;;;;;;;4.63;4.20;;;6.10;63.30;;;;;;4940388;29;20671;-58
2021/12/04 14:01:31;;;;;;;4.80;3.60;;;6.10;23.90;;;;;;4930428;29;20592;-59
2021/12/04 14:04:01;;;;;;;4.30;3.83;;;6.10;74.20;;;;;;4925079;29;20242;-59
2021/12/04 14:06:29;;;;;;;4.83;4.13;;;6.10;91.50;;;;;;4930734;29;20200;-59
2021/12/04 14:09:06;;;;;;;8.80;5.13;;;6.10;79.90;;;;;;4942760;29;20199;-59
2021/12/04 14:11:39;;;;;;;5.00;4.50;;;6.20;99.90;;;;;;4940365;29;20203;-59
2021/12/04 14:14:18;;;;;;;5.17;4.67;;;6.10;99.90;;;;;;4940626;29;20603;-58
2021/12/04 14:16:51;;;;;;;7.40;5.30;;;6.00;99.90;;;;;;4938274;29;20194;-59
2021/12/04 14:19:26;;;;;;;5.37;4.00;;;6.00;99.90;;;;;;4931997;29;20265;-59
2021/12/04 14:21:59;;;;;;;5.40;4.27;;;6.00;99.90;;;;;;4937780;29;20199;-59
2021/12/04 14:24:28;;;;;;;17.33;8.67;;;5.90;99.90;;;;;;4924711;29;20229;-58
2021/12/04 14:26:59;;;;;;;6.73;4.63;;;5.90;99.90;;;;;;4941824;28;20223;-58
2021/12/04 14:29:35;;;;;;;4.50;4.10;;;5.90;99.90;;;;;;4926846;29;20205;-58
2021/12/04 14:32:04;;;;;;;4.50;4.10;;;5.80;1.00;;;;;;4944221;29;20250;-59
2021/12/04 14:34:32;;;;;;;6.00;4.37;;;5.80;1.00;;;;;;4946622;29;20259;-59
2021/12/04 14:37:12;;;;;;;4.87;4.37;;;5.80;1.00;;;;;;4927448;29;20438;-59
2021/12/04 14:39:48;;;;;;;6.27;4.40;;;5.80;99.90;;;;;;4945451;29;20203;-59
2021/12/04 14:42:23;;;;;;;6.07;5.13;;;5.70;99.90;;;;;;4943703;29;20207;-58
2021/12/04 14:44:54;;;;;;;7.23;5.47;;;5.70;99.90;;;;;;4927793;29;20206;-58
2021/12/04 14:47:28;;;;;;;6.40;5.17;;;5.70;99.90;;;;;;4944924;29;20225;-59
2021/12/04 14:50:00;;;;;;;9.03;7.60;;;5.60;99.90;;;;;;4931473;29;20203;-59
2021/12/04 14:52:31;;;;;;;26.97;18.30;;;5.60;99.90;;;;;;4944928;29;20614;-59
2021/12/04 14:55:00;;;;;;;24.40;15.67;;;5.60;99.90;;;;;;4944895;29;20208;-59
2021/12/04 14:57:29;;;;;;;78.67;49.43;;;5.60;99.90;;;;;;4944020;29;20286;-58
2021/12/04 15:00:13;;;;;;;86.17;50.77;;;5.50;99.90;;;;;;4946544;29;21108;-58
2021/12/04 15:02:47;;;;;;;50.63;30.37;;;5.40;99.90;;;;;;4927661;29;20203;-58
2021/12/04 15:05:29;;;;;;;23.50;14.87;;;5.40;99.90;;;;;;4942910;29;20313;-58
2021/12/04 15:08:09;;;;;;;19.83;14.37;;;5.40;1.00;;;;;;4928588;29;20270;-59
2021/12/04 15:10:48;;;;;;;27.67;18.43;;;5.40;99.90;;;;;;4938978;28;20356;-58
2021/12/04 15:13:19;;;;;;;12.97;8.97;;;5.30;99.90;;;;;;4927667;29;20250;-58
2021/12/04 15:15:47;;;;;;;13.50;11.20;;;5.30;1.00;;;;;;4914582;28;20231;-58
2021/12/04 15:18:16;;;;;;;19.57;14.20;;;5.40;1.00;;;;;;4942921;29;20266;-59
2021/12/04 15:21:04;;;;;;;19.10;13.70;;;5.40;99.90;;;;;;4941362;29;20701;-58
2021/12/04 15:23:36;;;;;;;20.63;14.00;;;5.40;1.00;;;;;;4943462;29;20659;-58
2021/12/04 15:26:17;;;;;;;19.43;14.17;;;5.40;1.00;;;;;;4926519;29;20211;-58
2021/12/04 15:28:49;;;;;;;32.33;20.30;;;5.40;1.00;;;;;;4905845;29;20195;-58
2021/12/04 15:31:18;;;;;;;13.30;10.40;;;5.40;1.00;;;;;;4924355;29;20227;-58
2021/12/04 15:33:48;;;;;;;13.67;10.53;;;5.40;1.00;;;;;;4925052;29;20831;-58
2021/12/04 15:36:39;;;;;;;12.43;11.13;;;5.40;91.20;;;;;;4927535;29;20187;-58
2021/12/04 15:39:31;;;;;;;16.57;14.20;;;5.40;1.00;;;;;;4945166;29;20206;-58
2021/12/04 15:44:51;;;;;;;21.20;18.77;;;5.30;99.90;;;;;;4944621;29;20270;-58
2021/12/04 15:55:24;;;;;;;14.47;12.23;;;5.40;1.00;;;;;;4942859;29;20717;-59
2021/12/04 15:58:05;;;;;;;22.43;17.47;;;5.40;1.00;;;;;;4945120;29;20199;-59
2021/12/04 16:00:35;;;;;;;19.20;16.50;;;5.40;1.00;;;;;;4943457;29;20203;-59
2021/12/04 16:03:06;;;;;;;16.23;13.40;;;5.40;38.90;;;;;;4926865;29;20202;-59
2021/12/04 16:05:38;;;;;;;13.63;11.63;;;5.40;69.30;;;;;;4944028;29;20226;-58
2021/12/04 16:08:14;;;;;;;14.03;12.63;;;5.40;90.30;;;;;;4916215;29;20204;-59
2021/12/04 16:11:08;;;;;;;14.10;9.00;;;5.40;97.90;;;;;;4928882;29;20191;-59
2021/12/04 16:13:37;;;;;;;10.23;8.47;;;5.40;85.60;;;;;;4944457;29;20223;-59
2021/12/04 16:16:14;;;;;;;11.50;9.63;;;5.30;69.80;;;;;;4944613;29;20234;-59
2021/12/04 16:18:42;;;;;;;9.57;7.70;;;5.30;45.50;;;;;;4946701;29;20191;-59
2021/12/04 16:21:10;;;;;;;12.70;8.77;;;5.30;41.80;;;;;;4928603;29;20693;-59
2021/12/04 16:23:39;;;;;;;11.60;9.40;;;5.30;2.00;;;;;;4943855;29;20249;-59
2021/12/04 16:26:10;;;;;;;8.57;7.57;;;5.30;1.00;;;;;;4912951;29;20800;-59
2021/12/04 16:29:03;;;;;;;9.00;8.10;;;5.20;1.00;;;;;;4944430;28;20230;-59
2021/12/04 16:32:13;;;;;;;8.80;7.90;;;5.10;1.00;;;;;;4943074;29;20233;-59
2021/12/04 16:37:40;;;;;;;7.67;6.73;;;5.00;1.00;;;;;;4927831;29;20203;-59
2021/12/04 16:40:22;;;;;;;6.73;6.03;;;5.00;99.90;;;;;;4926357;29;20211;-59
2021/12/04 16:42:52;;;;;;;6.47;5.83;;;5.00;1.00;;;;;;4912046;29;20778;-59
2021/12/04 16:45:25;;;;;;;8.00;7.17;;;5.00;1.00;;;;;;4918393;29;20222;-59
2021/12/04 16:47:54;;;;;;;8.73;7.27;;;5.00;1.00;;;;;;4944970;29;20262;-59
2021/12/04 16:50:25;;;;;;;8.73;7.93;;;5.00;1.00;;;;;;4930013;29;20255;-59